sensor_id;sensor_type;location;lat;lon;timestamp;temperature;humidity
19403;DHT22;9837;48.888;8.998;2023-02-19T00:01:14;13.50;76.30
19403;DHT22;9837;48.888;8.998;2023-02-19T00:03:40;13.30;77.10
19403;DHT22;9837;48.888;8.998;2023-02-19T00:06:08;13.30;77.40
19403;DHT22;9837;48.888;8.998;2023-02-19T00:08:36;13.40;76.30
19403;DHT22;9837;48.888;8.998;2023-02-19T00:13:28;13.50;76.90
19403;DHT22;9837;48.888;8.998;2023-02-19T00:15:54;13.40;76.30
19403;DHT22;9837;48.888;8.998;2023-02-19T00:23:12;13.20;77.00
19403;DHT22;9837;48.888;8.998;2023-02-19T00:25:38;12.80;78.50
19403;DHT22;9837;48.888;8.998;2023-02-19T00:28:04;12.80;79.30
19403;DHT22;9837;48.888;8.998;2023-02-19T00:30:29;12.70;79.70
19403;DHT22;9837;48.888;8.998;2023-02-19T00:32:55;12.70;80.40
19403;DHT22;9837;48.888;8.998;2023-02-19T00:35:21;12.90;79.90
19403;DHT22;9837;48.888;8.998;2023-02-19T00:37:46;13.10;78.80
19403;DHT22;9837;48.888;8.998;2023-02-19T00:40:12;13.30;76.80
19403;DHT22;9837;48.888;8.998;2023-02-19T00:42:37;13.30;77.50
19403;DHT22;9837;48.888;8.998;2023-02-19T00:45:03;13.30;77.60
19403;DHT22;9837;48.888;8.998;2023-02-19T00:47:29;13.30;77.40
19403;DHT22;9837;48.888;8.998;2023-02-19T00:49:54;13.20;77.80
19403;DHT22;9837;48.888;8.998;2023-02-19T00:52:20;13.00;78.00
19403;DHT22;9837;48.888;8.998;2023-02-19T00:54:45;13.00;78.70
19403;DHT22;9837;48.888;8.998;2023-02-19T00:57:11;12.90;78.90
19403;DHT22;9837;48.888;8.998;2023-02-19T00:59:36;12.80;79.60
19403;DHT22;9837;48.888;8.998;2023-02-19T01:02:02;12.80;79.70
19403;DHT22;9837;48.888;8.998;2023-02-19T01:04:28;12.70;79.90
19403;DHT22;9837;48.888;8.998;2023-02-19T01:06:53;12.90;79.60
19403;DHT22;9837;48.888;8.998;2023-02-19T01:09:19;13.10;78.00
19403;DHT22;9837;48.888;8.998;2023-02-19T01:11:44;13.10;78.60
19403;DHT22;9837;48.888;8.998;2023-02-19T01:14:10;13.00;78.70
19403;DHT22;9837;48.888;8.998;2023-02-19T01:16:35;12.80;79.00
19403;DHT22;9837;48.888;8.998;2023-02-19T01:19:01;12.90;78.50
19403;DHT22;9837;48.888;8.998;2023-02-19T01:21:28;12.90;78.40
19403;DHT22;9837;48.888;8.998;2023-02-19T01:23:54;12.90;79.10
19403;DHT22;9837;48.888;8.998;2023-02-19T01:26:23;12.90;79.30
19403;DHT22;9837;48.888;8.998;2023-02-19T01:28:50;13.00;78.40
19403;DHT22;9837;48.888;8.998;2023-02-19T01:31:18;13.00;79.10
19403;DHT22;9837;48.888;8.998;2023-02-19T01:33:50;12.80;79.30
19403;DHT22;9837;48.888;8.998;2023-02-19T01:36:16;12.90;79.20
19403;DHT22;9837;48.888;8.998;2023-02-19T01:38:42;12.90;78.30
19403;DHT22;9837;48.888;8.998;2023-02-19T01:41:12;13.00;78.90
19403;DHT22;9837;48.888;8.998;2023-02-19T01:43:59;13.00;77.70
19403;DHT22;9837;48.888;8.998;2023-02-19T01:46:33;13.10;77.60
19403;DHT22;9837;48.888;8.998;2023-02-19T01:49:12;13.30;76.90
19403;DHT22;9837;48.888;8.998;2023-02-19T01:51:47;13.30;77.50
19403;DHT22;9837;48.888;8.998;2023-02-19T01:54:16;13.50;76.60
19403;DHT22;9837;48.888;8.998;2023-02-19T01:56:42;13.70;76.20
19403;DHT22;9837;48.888;8.998;2023-02-19T01:59:08;13.70;75.70
19403;DHT22;9837;48.888;8.998;2023-02-19T02:01:36;13.80;74.50
19403;DHT22;9837;48.888;8.998;2023-02-19T02:04:04;13.80;75.10
19403;DHT22;9837;48.888;8.998;2023-02-19T02:06:34;13.80;75.10
19403;DHT22;9837;48.888;8.998;2023-02-19T02:09:02;13.90;74.30
19403;DHT22;9837;48.888;8.998;2023-02-19T02:11:48;14.50;75.40
19403;DHT22;9837;48.888;8.998;2023-02-19T02:14:16;13.50;75.40
19403;DHT22;9837;48.888;8.998;2023-02-19T02:19:31;13.10;77.20
19403;DHT22;9837;48.888;8.998;2023-02-19T02:27:41;13.10;78.30
19403;DHT22;9837;48.888;8.998;2023-02-19T02:30:30;13.10;78.10
19403;DHT22;9837;48.888;8.998;2023-02-19T02:33:20;13.20;77.20
19403;DHT22;9837;48.888;8.998;2023-02-19T02:35:56;13.30;77.10
19403;DHT22;9837;48.888;8.998;2023-02-19T02:38:25;13.30;77.70
19403;DHT22;9837;48.888;8.998;2023-02-19T02:43:18;13.10;77.70
19403;DHT22;9837;48.888;8.998;2023-02-19T02:45:44;12.80;78.80
19403;DHT22;9837;48.888;8.998;2023-02-19T02:53:37;12.80;79.50
19403;DHT22;9837;48.888;8.998;2023-02-19T02:56:24;12.80;79.70
19403;DHT22;9837;48.888;8.998;2023-02-19T02:58:52;12.80;79.90
19403;DHT22;9837;48.888;8.998;2023-02-19T03:01:26;12.70;79.80
19403;DHT22;9837;48.888;8.998;2023-02-19T03:04:17;12.80;79.60
19403;DHT22;9837;48.888;8.998;2023-02-19T03:06:46;12.60;80.40
19403;DHT22;9837;48.888;8.998;2023-02-19T03:09:18;12.60;80.70
19403;DHT22;9837;48.888;8.998;2023-02-19T03:11:46;12.60;80.70
19403;DHT22;9837;48.888;8.998;2023-02-19T03:14:39;12.50;80.60
19403;DHT22;9837;48.888;8.998;2023-02-19T03:17:38;12.20;81.90
19403;DHT22;9837;48.888;8.998;2023-02-19T03:20:25;12.10;81.90
19403;DHT22;9837;48.888;8.998;2023-02-19T03:22:52;12.10;82.60
19403;DHT22;9837;48.888;8.998;2023-02-19T03:25:24;12.00;83.00
19403;DHT22;9837;48.888;8.998;2023-02-19T03:28:10;12.10;82.60
19403;DHT22;9837;48.888;8.998;2023-02-19T03:30:40;12.10;82.00
19403;DHT22;9837;48.888;8.998;2023-02-19T03:33:16;12.10;82.70
19403;DHT22;9837;48.888;8.998;2023-02-19T03:35:49;12.50;80.40
19403;DHT22;9837;48.888;8.998;2023-02-19T03:38:25;12.40;81.00
19403;DHT22;9837;48.888;8.998;2023-02-19T03:40:59;12.60;80.40
19403;DHT22;9837;48.888;8.998;2023-02-19T03:43:46;12.50;80.30
19403;DHT22;9837;48.888;8.998;2023-02-19T03:46:23;12.10;80.70
19403;DHT22;9837;48.888;8.998;2023-02-19T03:48:57;12.10;80.90
19403;DHT22;9837;48.888;8.998;2023-02-19T03:54:12;12.10;81.90
19403;DHT22;9837;48.888;8.998;2023-02-19T03:56:51;12.10;80.50
19403;DHT22;9837;48.888;8.998;2023-02-19T03:59:46;12.00;81.10
19403;DHT22;9837;48.888;8.998;2023-02-19T04:02:32;11.80;81.80
19403;DHT22;9837;48.888;8.998;2023-02-19T04:05:08;12.00;80.90
19403;DHT22;9837;48.888;8.998;2023-02-19T04:07:40;12.00;80.90
19403;DHT22;9837;48.888;8.998;2023-02-19T04:10:07;12.20;79.60
19403;DHT22;9837;48.888;8.998;2023-02-19T04:12:35;12.20;80.20
19403;DHT22;9837;48.888;8.998;2023-02-19T04:15:05;12.40;79.40
19403;DHT22;9837;48.888;8.998;2023-02-19T04:17:35;12.40;79.00
19403;DHT22;9837;48.888;8.998;2023-02-19T04:20:06;12.20;78.70
19403;DHT22;9837;48.888;8.998;2023-02-19T04:22:33;12.20;78.90
19403;DHT22;9837;48.888;8.998;2023-02-19T04:27:25;12.20;79.20
19403;DHT22;9837;48.888;8.998;2023-02-19T04:29:51;13.60;81.50
19403;DHT22;9837;48.888;8.998;2023-02-19T04:34:43;12.00;79.90
19403;DHT22;9837;48.888;8.998;2023-02-19T04:37:08;12.00;80.60
19403;DHT22;9837;48.888;8.998;2023-02-19T04:42:00;12.10;79.40
19403;DHT22;9837;48.888;8.998;2023-02-19T04:49:17;12.00;79.90
19403;DHT22;9837;48.888;8.998;2023-02-19T04:51:43;11.90;79.90
19403;DHT22;9837;48.888;8.998;2023-02-19T04:54:08;11.90;80.80
19403;DHT22;9837;48.888;8.998;2023-02-19T04:56:34;11.90;81.20
19403;DHT22;9837;48.888;8.998;2023-02-19T05:03:51;11.90;80.20
19403;DHT22;9837;48.888;8.998;2023-02-19T05:06:17;11.80;81.20
19403;DHT22;9837;48.888;8.998;2023-02-19T05:08:43;11.70;81.20
19403;DHT22;9837;48.888;8.998;2023-02-19T05:11:10;11.50;82.20
19403;DHT22;9837;48.888;8.998;2023-02-19T05:13:37;11.60;81.20
19403;DHT22;9837;48.888;8.998;2023-02-19T05:16:06;11.60;81.30
19403;DHT22;9837;48.888;8.998;2023-02-19T05:18:33;11.60;82.00
19403;DHT22;9837;48.888;8.998;2023-02-19T05:20:59;11.60;81.50
19403;DHT22;9837;48.888;8.998;2023-02-19T05:23:25;11.60;82.30
19403;DHT22;9837;48.888;8.998;2023-02-19T05:25:51;11.30;82.70
19403;DHT22;9837;48.888;8.998;2023-02-19T05:28:17;11.30;83.50
19403;DHT22;9837;48.888;8.998;2023-02-19T05:30:45;11.40;83.30
19403;DHT22;9837;48.888;8.998;2023-02-19T05:33:11;11.40;82.70
19403;DHT22;9837;48.888;8.998;2023-02-19T05:35:49;11.50;81.10
19403;DHT22;9837;48.888;8.998;2023-02-19T05:38:15;11.50;81.80
19403;DHT22;9837;48.888;8.998;2023-02-19T05:40:42;11.50;81.80
19403;DHT22;9837;48.888;8.998;2023-02-19T05:43:07;11.60;81.40
19403;DHT22;9837;48.888;8.998;2023-02-19T05:45:34;11.40;81.40
19403;DHT22;9837;48.888;8.998;2023-02-19T05:48:00;11.40;81.50
19403;DHT22;9837;48.888;8.998;2023-02-19T05:50:26;11.30;81.90
19403;DHT22;9837;48.888;8.998;2023-02-19T05:52:52;11.40;82.00
19403;DHT22;9837;48.888;8.998;2023-02-19T05:55:17;11.50;81.10
19403;DHT22;9837;48.888;8.998;2023-02-19T05:57:45;11.40;81.50
19403;DHT22;9837;48.888;8.998;2023-02-19T06:00:13;11.40;81.60
19403;DHT22;9837;48.888;8.998;2023-02-19T06:02:39;11.30;81.90
19403;DHT22;9837;48.888;8.998;2023-02-19T06:05:05;11.40;80.10
19403;DHT22;9837;48.888;8.998;2023-02-19T06:07:31;11.30;80.30
19403;DHT22;9837;48.888;8.998;2023-02-19T06:09:57;11.30;81.00
19403;DHT22;9837;48.888;8.998;2023-02-19T06:12:23;11.20;81.10
19403;DHT22;9837;48.888;8.998;2023-02-19T06:14:49;11.10;81.70
19403;DHT22;9837;48.888;8.998;2023-02-19T06:17:14;11.00;81.60
19403;DHT22;9837;48.888;8.998;2023-02-19T06:19:40;10.90;82.30
19403;DHT22;9837;48.888;8.998;2023-02-19T06:22:05;10.90;82.60
19403;DHT22;9837;48.888;8.998;2023-02-19T06:24:31;11.00;82.80
19403;DHT22;9837;48.888;8.998;2023-02-19T06:26:57;11.00;81.60
19403;DHT22;9837;48.888;8.998;2023-02-19T06:29:23;10.90;82.30
19403;DHT22;9837;48.888;8.998;2023-02-19T06:31:48;10.90;82.10
19403;DHT22;9837;48.888;8.998;2023-02-19T06:34:14;10.90;81.90
19403;DHT22;9837;48.888;8.998;2023-02-19T06:36:39;10.90;81.80
19403;DHT22;9837;48.888;8.998;2023-02-19T06:39:05;10.90;81.60
19403;DHT22;9837;48.888;8.998;2023-02-19T06:41:31;11.10;80.50
19403;DHT22;9837;48.888;8.998;2023-02-19T06:43:57;11.10;79.90
19403;DHT22;9837;48.888;8.998;2023-02-19T06:46:22;11.10;80.60
19403;DHT22;9837;48.888;8.998;2023-02-19T06:48:48;11.10;80.30
19403;DHT22;9837;48.888;8.998;2023-02-19T06:51:16;11.10;80.70
19403;DHT22;9837;48.888;8.998;2023-02-19T06:53:48;11.20;80.30
19403;DHT22;9837;48.888;8.998;2023-02-19T06:56:25;11.20;80.30
19403;DHT22;9837;48.888;8.998;2023-02-19T06:58:56;11.40;79.20
19403;DHT22;9837;48.888;8.998;2023-02-19T07:01:24;11.20;79.90
19403;DHT22;9837;48.888;8.998;2023-02-19T07:03:50;11.20;80.50
19403;DHT22;9837;48.888;8.998;2023-02-19T07:06:17;11.20;79.50
19403;DHT22;9837;48.888;8.998;2023-02-19T07:08:43;11.20;79.60
19403;DHT22;9837;48.888;8.998;2023-02-19T07:11:08;11.20;80.40
19403;DHT22;9837;48.888;8.998;2023-02-19T07:13:34;11.30;80.10
19403;DHT22;9837;48.888;8.998;2023-02-19T07:16:01;11.20;80.20
19403;DHT22;9837;48.888;8.998;2023-02-19T07:18:29;11.20;80.20
19403;DHT22;9837;48.888;8.998;2023-02-19T07:20:54;11.40;78.60
19403;DHT22;9837;48.888;8.998;2023-02-19T07:23:25;11.40;79.20
19403;DHT22;9837;48.888;8.998;2023-02-19T07:25:51;11.40;78.60
19403;DHT22;9837;48.888;8.998;2023-02-19T07:28:16;11.30;79.30
19403;DHT22;9837;48.888;8.998;2023-02-19T07:30:42;11.20;79.60
19403;DHT22;9837;48.888;8.998;2023-02-19T07:33:09;11.30;78.90
19403;DHT22;9837;48.888;8.998;2023-02-19T07:35:35;11.30;78.50
19403;DHT22;9837;48.888;8.998;2023-02-19T07:38:00;11.70;77.10
19403;DHT22;9837;48.888;8.998;2023-02-19T07:40:25;11.70;77.60
19403;DHT22;9837;48.888;8.998;2023-02-19T07:42:51;11.80;75.50
19403;DHT22;9837;48.888;8.998;2023-02-19T07:45:16;11.70;76.20
19403;DHT22;9837;48.888;8.998;2023-02-19T07:47:42;12.10;75.60
19403;DHT22;9837;48.888;8.998;2023-02-19T07:50:08;12.00;74.30
19403;DHT22;9837;48.888;8.998;2023-02-19T07:52:33;11.90;75.30
19403;DHT22;9837;48.888;8.998;2023-02-19T07:54:59;12.00;74.70
19403;DHT22;9837;48.888;8.998;2023-02-19T07:57:26;12.00;75.40
19403;DHT22;9837;48.888;8.998;2023-02-19T07:59:52;12.00;75.90
19403;DHT22;9837;48.888;8.998;2023-02-19T08:02:19;12.20;75.80
19403;DHT22;9837;48.888;8.998;2023-02-19T08:05:05;12.20;74.10
19403;DHT22;9837;48.888;8.998;2023-02-19T08:07:34;12.20;73.70
19403;DHT22;9837;48.888;8.998;2023-02-19T08:10:01;11.90;74.50
19403;DHT22;9837;48.888;8.998;2023-02-19T08:12:54;12.20;74.20
19403;DHT22;9837;48.888;8.998;2023-02-19T08:15:40;12.50;72.80
19403;DHT22;9837;48.888;8.998;2023-02-19T08:18:06;12.50;73.50
19403;DHT22;9837;48.888;8.998;2023-02-19T08:20:32;11.90;73.90
19403;DHT22;9837;48.888;8.998;2023-02-19T08:22:57;11.90;74.70
19403;DHT22;9837;48.888;8.998;2023-02-19T08:25:22;12.00;75.40
19403;DHT22;9837;48.888;8.998;2023-02-19T08:27:48;12.10;74.90
19403;DHT22;9837;48.888;8.998;2023-02-19T08:30:14;12.00;74.40
19403;DHT22;9837;48.888;8.998;2023-02-19T08:32:39;12.00;74.30
19403;DHT22;9837;48.888;8.998;2023-02-19T08:35:05;12.10;75.00
19403;DHT22;9837;48.888;8.998;2023-02-19T08:37:30;12.20;73.80
19403;DHT22;9837;48.888;8.998;2023-02-19T08:39:56;12.20;74.40
19403;DHT22;9837;48.888;8.998;2023-02-19T08:42:21;12.40;73.90
19403;DHT22;9837;48.888;8.998;2023-02-19T08:44:47;12.10;73.90
19403;DHT22;9837;48.888;8.998;2023-02-19T08:47:12;12.00;74.60
19403;DHT22;9837;48.888;8.998;2023-02-19T08:49:37;11.80;74.20
19403;DHT22;9837;48.888;8.998;2023-02-19T08:52:03;11.80;74.80
19403;DHT22;9837;48.888;8.998;2023-02-19T08:54:29;11.80;74.30
19403;DHT22;9837;48.888;8.998;2023-02-19T08:56:54;11.70;74.90
19403;DHT22;9837;48.888;8.998;2023-02-19T08:59:20;11.70;75.60
19403;DHT22;9837;48.888;8.998;2023-02-19T09:01:46;11.80;75.70
19403;DHT22;9837;48.888;8.998;2023-02-19T09:04:12;11.90;75.40
19403;DHT22;9837;48.888;8.998;2023-02-19T09:06:37;12.00;74.60
19403;DHT22;9837;48.888;8.998;2023-02-19T09:09:03;12.10;74.10
19403;DHT22;9837;48.888;8.998;2023-02-19T09:11:29;12.10;73.80
19403;DHT22;9837;48.888;8.998;2023-02-19T09:13:55;12.20;73.80
19403;DHT22;9837;48.888;8.998;2023-02-19T09:16:21;12.20;72.70
19403;DHT22;9837;48.888;8.998;2023-02-19T09:21:13;12.60;70.90
19403;DHT22;9837;48.888;8.998;2023-02-19T09:26:05;12.80;69.90
19403;DHT22;9837;48.888;8.998;2023-02-19T09:28:33;12.70;69.50
19403;DHT22;9837;48.888;8.998;2023-02-19T09:31:07;12.70;70.20
19403;DHT22;9837;48.888;8.998;2023-02-19T09:35:59;12.50;69.50
19403;DHT22;9837;48.888;8.998;2023-02-19T09:38:26;12.40;69.30
19403;DHT22;9837;48.888;8.998;2023-02-19T09:40:51;12.40;70.00
19403;DHT22;9837;48.888;8.998;2023-02-19T09:43:22;12.70;69.50
19403;DHT22;9837;48.888;8.998;2023-02-19T09:46:02;12.90;68.90
19403;DHT22;9837;48.888;8.998;2023-02-19T09:48:28;12.90;69.40
19403;DHT22;9837;48.888;8.998;2023-02-19T09:50:54;13.00;67.90
19403;DHT22;9837;48.888;8.998;2023-02-19T09:53:25;13.30;66.90
19403;DHT22;9837;48.888;8.998;2023-02-19T09:55:53;13.50;66.10
19403;DHT22;9837;48.888;8.998;2023-02-19T10:00:53;13.50;64.90
19403;DHT22;9837;48.888;8.998;2023-02-19T10:03:25;13.40;65.70
19403;DHT22;9837;48.888;8.998;2023-02-19T10:06:38;13.10;66.60
19403;DHT22;9837;48.888;8.998;2023-02-19T10:08:46;13.00;67.00
19403;DHT22;9837;48.888;8.998;2023-02-19T10:11:13;13.10;67.40
19403;DHT22;9837;48.888;8.998;2023-02-19T10:13:49;13.10;68.20
19403;DHT22;9837;48.888;8.998;2023-02-19T10:16:26;13.20;66.90
19403;DHT22;9837;48.888;8.998;2023-02-19T10:18:52;13.60;64.90
19403;DHT22;9837;48.888;8.998;2023-02-19T10:21:23;13.60;65.60
19403;DHT22;9837;48.888;8.998;2023-02-19T10:23:55;14.00;64.20
19403;DHT22;9837;48.888;8.998;2023-02-19T10:28:49;14.20;61.90
19403;DHT22;9837;48.888;8.998;2023-02-19T10:31:21;14.40;63.20
19403;DHT22;9837;48.888;8.998;2023-02-19T10:33:58;14.40;61.30
19403;DHT22;9837;48.888;8.998;2023-02-19T10:38:53;14.20;62.40
19403;DHT22;9837;48.888;8.998;2023-02-19T10:41:21;14.20;63.10
19403;DHT22;9837;48.888;8.998;2023-02-19T10:46:46;13.70;62.70
19403;DHT22;9837;48.888;8.998;2023-02-19T10:49:31;13.80;63.40
19403;DHT22;9837;48.888;8.998;2023-02-19T10:52:28;13.50;64.50
19403;DHT22;9837;48.888;8.998;2023-02-19T10:55:13;13.60;64.00
19403;DHT22;9837;48.888;8.998;2023-02-19T10:57:38;13.70;64.50
19403;DHT22;9837;48.888;8.998;2023-02-19T11:02:40;13.80;65.00
19403;DHT22;9837;48.888;8.998;2023-02-19T11:07:47;13.50;65.20
19403;DHT22;9837;48.888;8.998;2023-02-19T11:10:35;13.30;65.90
19403;DHT22;9837;48.888;8.998;2023-02-19T11:13:05;13.10;66.60
19403;DHT22;9837;48.888;8.998;2023-02-19T11:15:33;13.10;67.30
19403;DHT22;9837;48.888;8.998;2023-02-19T11:18:04;13.30;65.20
19403;DHT22;9837;48.888;8.998;2023-02-19T11:20:31;13.30;65.60
19403;DHT22;9837;48.888;8.998;2023-02-19T11:23:09;13.20;64.80
19403;DHT22;9837;48.888;8.998;2023-02-19T11:25:46;13.10;65.70
19403;DHT22;9837;48.888;8.998;2023-02-19T11:30:42;13.20;66.00
19403;DHT22;9837;48.888;8.998;2023-02-19T11:35:46;12.90;65.90
19403;DHT22;9837;48.888;8.998;2023-02-19T11:38:14;12.90;66.70
19403;DHT22;9837;48.888;8.998;2023-02-19T11:43:47;13.20;66.80
19403;DHT22;9837;48.888;8.998;2023-02-19T11:46:36;13.30;65.40
19403;DHT22;9837;48.888;8.998;2023-02-19T11:54:52;13.80;63.10
19403;DHT22;9837;48.888;8.998;2023-02-19T12:03:15;14.30;62.40
19403;DHT22;9837;48.888;8.998;2023-02-19T12:12:07;14.50;59.90
19403;DHT22;9837;48.888;8.998;2023-02-19T12:14:41;14.70;59.80
19403;DHT22;9837;48.888;8.998;2023-02-19T12:20:25;14.40;62.50
19403;DHT22;9837;48.888;8.998;2023-02-19T12:31:29;13.80;64.70
19403;DHT22;9837;48.888;8.998;2023-02-19T12:41:54;13.90;63.40
19403;DHT22;9837;48.888;8.998;2023-02-19T12:44:41;14.10;63.30
19403;DHT22;9837;48.888;8.998;2023-02-19T12:47:15;14.30;61.80
19403;DHT22;9837;48.888;8.998;2023-02-19T12:49:47;14.20;61.10
19403;DHT22;9837;48.888;8.998;2023-02-19T12:52:19;14.00;60.90
19403;DHT22;9837;48.888;8.998;2023-02-19T12:54:49;13.90;61.60
19403;DHT22;9837;48.888;8.998;2023-02-19T12:57:23;14.10;61.00
19403;DHT22;9837;48.888;8.998;2023-02-19T13:00:06;13.80;60.20
19403;DHT22;9837;48.888;8.998;2023-02-19T13:02:58;13.90;61.00
19403;DHT22;9837;48.888;8.998;2023-02-19T13:05:28;13.90;59.70
19403;DHT22;9837;48.888;8.998;2023-02-19T13:08:03;13.90;60.20
19403;DHT22;9837;48.888;8.998;2023-02-19T13:10:37;13.60;61.50
19403;DHT22;9837;48.888;8.998;2023-02-19T13:13:19;13.50;62.40
19403;DHT22;9837;48.888;8.998;2023-02-19T13:15:49;13.90;60.60
19403;DHT22;9837;48.888;8.998;2023-02-19T13:18:23;13.90;61.10
19403;DHT22;9837;48.888;8.998;2023-02-19T13:20:50;14.10;59.70
19403;DHT22;9837;48.888;8.998;2023-02-19T13:26:16;14.30;60.30
19403;DHT22;9837;48.888;8.998;2023-02-19T13:31:52;14.30;59.90
19403;DHT22;9837;48.888;8.998;2023-02-19T13:34:49;14.10;59.50
19403;DHT22;9837;48.888;8.998;2023-02-19T13:37:18;14.00;61.30
19403;DHT22;9837;48.888;8.998;2023-02-19T13:39:46;13.90;63.60
19403;DHT22;9837;48.888;8.998;2023-02-19T13:42:26;13.90;64.80
19403;DHT22;9837;48.888;8.998;2023-02-19T13:44:54;13.60;65.80
19403;DHT22;9837;48.888;8.998;2023-02-19T13:50:23;13.70;66.80
19403;DHT22;9837;48.888;8.998;2023-02-19T13:52:50;14.00;66.10
19403;DHT22;9837;48.888;8.998;2023-02-19T14:01:02;14.00;65.80
19403;DHT22;9837;48.888;8.998;2023-02-19T14:03:43;14.10;65.60
19403;DHT22;9837;48.888;8.998;2023-02-19T14:06:10;14.00;64.70
19403;DHT22;9837;48.888;8.998;2023-02-19T14:08:54;13.60;65.60
19403;DHT22;9837;48.888;8.998;2023-02-19T14:14:28;13.30;66.90
19403;DHT22;9837;48.888;8.998;2023-02-19T14:17:01;13.50;65.10
19403;DHT22;9837;48.888;8.998;2023-02-19T14:19:44;13.50;65.70
19403;DHT22;9837;48.888;8.998;2023-02-19T14:28:17;14.40;61.70
19403;DHT22;9837;48.888;8.998;2023-02-19T14:30:52;14.10;60.30
19403;DHT22;9837;48.888;8.998;2023-02-19T14:33:21;14.10;61.80
19403;DHT22;9837;48.888;8.998;2023-02-19T14:35:52;14.00;60.00
19403;DHT22;9837;48.888;8.998;2023-02-19T14:38:27;14.00;60.50
19403;DHT22;9837;48.888;8.998;2023-02-19T14:40:55;13.90;60.30
19403;DHT22;9837;48.888;8.998;2023-02-19T14:43:23;13.70;61.10
19403;DHT22;9837;48.888;8.998;2023-02-19T14:46:01;13.70;61.00
19403;DHT22;9837;48.888;8.998;2023-02-19T14:48:31;13.70;61.60
19403;DHT22;9837;48.888;8.998;2023-02-19T14:51:07;13.70;61.70
19403;DHT22;9837;48.888;8.998;2023-02-19T14:53:38;14.10;61.00
19403;DHT22;9837;48.888;8.998;2023-02-19T14:56:05;14.20;60.60
19403;DHT22;9837;48.888;8.998;2023-02-19T14:58:32;14.20;60.20
19403;DHT22;9837;48.888;8.998;2023-02-19T15:00:58;14.20;59.70
19403;DHT22;9837;48.888;8.998;2023-02-19T15:03:38;14.30;59.20
19403;DHT22;9837;48.888;8.998;2023-02-19T15:06:11;14.20;59.70
19403;DHT22;9837;48.888;8.998;2023-02-19T15:08:42;13.80;59.70
19403;DHT22;9837;48.888;8.998;2023-02-19T15:11:18;13.80;60.10
19403;DHT22;9837;48.888;8.998;2023-02-19T15:13:49;13.60;61.10
19403;DHT22;9837;48.888;8.998;2023-02-19T15:16:20;13.60;60.80
19403;DHT22;9837;48.888;8.998;2023-02-19T15:18:47;13.80;60.70
19403;DHT22;9837;48.888;8.998;2023-02-19T15:21:23;13.70;61.30
19403;DHT22;9837;48.888;8.998;2023-02-19T15:23:51;13.70;62.10
19403;DHT22;9837;48.888;8.998;2023-02-19T15:26:26;13.60;62.20
19403;DHT22;9837;48.888;8.998;2023-02-19T15:28:59;13.60;61.90
19403;DHT22;9837;48.888;8.998;2023-02-19T15:31:25;13.70;62.30
19403;DHT22;9837;48.888;8.998;2023-02-19T15:33:52;13.70;61.90
19403;DHT22;9837;48.888;8.998;2023-02-19T15:36:29;13.70;61.90
19403;DHT22;9837;48.888;8.998;2023-02-19T15:38:58;13.80;61.90
19403;DHT22;9837;48.888;8.998;2023-02-19T15:41:28;13.90;61.40
19403;DHT22;9837;48.888;8.998;2023-02-19T15:46:50;13.80;61.20
19403;DHT22;9837;48.888;8.998;2023-02-19T15:49:25;17.20;63.90
19403;DHT22;9837;48.888;8.998;2023-02-19T15:52:09;13.80;61.40
19403;DHT22;9837;48.888;8.998;2023-02-19T15:54:46;13.70;61.60
19403;DHT22;9837;48.888;8.998;2023-02-19T15:57:19;18.00;65.10
19403;DHT22;9837;48.888;8.998;2023-02-19T15:59:51;13.60;62.30
19403;DHT22;9837;48.888;8.998;2023-02-19T16:02:17;13.40;63.30
19403;DHT22;9837;48.888;8.998;2023-02-19T16:04:44;13.20;62.90
19403;DHT22;9837;48.888;8.998;2023-02-19T16:07:30;13.40;63.30
19403;DHT22;9837;48.888;8.998;2023-02-19T16:10:20;13.40;63.80
19403;DHT22;9837;48.888;8.998;2023-02-19T16:13:00;13.40;63.60
19403;DHT22;9837;48.888;8.998;2023-02-19T16:15:28;13.60;63.50
19403;DHT22;9837;48.888;8.998;2023-02-19T16:17:54;13.50;63.20
19403;DHT22;9837;48.888;8.998;2023-02-19T16:20:27;13.40;64.00
19403;DHT22;9837;48.888;8.998;2023-02-19T16:23:02;13.30;64.40
19403;DHT22;9837;48.888;8.998;2023-02-19T16:25:35;13.20;64.30
19403;DHT22;9837;48.888;8.998;2023-02-19T16:28:13;13.30;64.60
19403;DHT22;9837;48.888;8.998;2023-02-19T16:30:42;13.30;64.60
19403;DHT22;9837;48.888;8.998;2023-02-19T16:33:43;13.20;63.60
19403;DHT22;9837;48.888;8.998;2023-02-19T16:36:18;13.20;64.70
19403;DHT22;9837;48.888;8.998;2023-02-19T16:41:27;13.00;65.50
19403;DHT22;9837;48.888;8.998;2023-02-19T16:43:52;13.00;66.00
19403;DHT22;9837;48.888;8.998;2023-02-19T16:46:18;13.00;65.40
19403;DHT22;9837;48.888;8.998;2023-02-19T16:48:44;13.00;65.40
19403;DHT22;9837;48.888;8.998;2023-02-19T16:51:16;13.20;64.90
19403;DHT22;9837;48.888;8.998;2023-02-19T16:53:43;13.40;64.30
19403;DHT22;9837;48.888;8.998;2023-02-19T16:56:15;13.60;63.50
19403;DHT22;9837;48.888;8.998;2023-02-19T16:58:43;13.70;62.60
19403;DHT22;9837;48.888;8.998;2023-02-19T17:01:08;13.80;62.00
19403;DHT22;9837;48.888;8.998;2023-02-19T17:03:37;13.80;62.60
19403;DHT22;9837;48.888;8.998;2023-02-19T17:06:03;13.90;62.40
19403;DHT22;9837;48.888;8.998;2023-02-19T17:08:37;13.70;62.40
19403;DHT22;9837;48.888;8.998;2023-02-19T17:11:06;13.60;62.60
19403;DHT22;9837;48.888;8.998;2023-02-19T17:13:34;13.60;63.30
19403;DHT22;9837;48.888;8.998;2023-02-19T17:15:59;13.70;63.80
19403;DHT22;9837;48.888;8.998;2023-02-19T17:18:25;13.30;63.90
19403;DHT22;9837;48.888;8.998;2023-02-19T17:23:31;13.00;64.90
19403;DHT22;9837;48.888;8.998;2023-02-19T17:25:56;12.80;65.20
19403;DHT22;9837;48.888;8.998;2023-02-19T17:28:22;12.60;65.60
19403;DHT22;9837;48.888;8.998;2023-02-19T17:30:47;12.30;66.00
19403;DHT22;9837;48.888;8.998;2023-02-19T17:33:13;12.20;66.70
19403;DHT22;9837;48.888;8.998;2023-02-19T17:35:38;12.40;65.90
19403;DHT22;9837;48.888;8.998;2023-02-19T17:38:09;12.30;66.60
19403;DHT22;9837;48.888;8.998;2023-02-19T17:40:34;12.50;66.10
19403;DHT22;9837;48.888;8.998;2023-02-19T17:43:01;12.60;65.00
19403;DHT22;9837;48.888;8.998;2023-02-19T17:45:27;12.70;65.70
19403;DHT22;9837;48.888;8.998;2023-02-19T17:47:53;12.80;65.00
19403;DHT22;9837;48.888;8.998;2023-02-19T17:50:21;12.80;64.60
19403;DHT22;9837;48.888;8.998;2023-02-19T17:52:47;12.50;65.70
19403;DHT22;9837;48.888;8.998;2023-02-19T17:55:14;12.30;66.50
19403;DHT22;9837;48.888;8.998;2023-02-19T17:57:45;12.70;64.80
19403;DHT22;9837;48.888;8.998;2023-02-19T18:00:17;12.80;64.30
19403;DHT22;9837;48.888;8.998;2023-02-19T18:05:09;12.90;64.20
19403;DHT22;9837;48.888;8.998;2023-02-19T18:07:34;12.70;65.20
19403;DHT22;9837;48.888;8.998;2023-02-19T18:10:00;12.60;64.80
19403;DHT22;9837;48.888;8.998;2023-02-19T18:12:26;12.60;65.60
19403;DHT22;9837;48.888;8.998;2023-02-19T18:14:52;12.70;64.90
19403;DHT22;9837;48.888;8.998;2023-02-19T18:17:21;12.90;64.10
19403;DHT22;9837;48.888;8.998;2023-02-19T18:19:46;12.90;63.70
19403;DHT22;9837;48.888;8.998;2023-02-19T18:22:12;12.80;64.50
19403;DHT22;9837;48.888;8.998;2023-02-19T18:24:43;12.80;64.40
19403;DHT22;9837;48.888;8.998;2023-02-19T18:27:09;12.80;65.10
19403;DHT22;9837;48.888;8.998;2023-02-19T18:29:35;12.90;64.30